Terminal Aerodrome Forecast
Issued by NWS Quad Cities IA IL

Home | Current Version | Previous Version | Text Only | Print | Product List | Glossary On
Versions: 1 2 3 4 5 6 7 8 9 10 11 12 13 14 15 16 17 18 19 20 21 22 23
965
FTUS43 KDVN 100520
TAFDBQ
TAF
KDBQ 100520Z 1006/1106 22008KT P6SM BKN100
     FM101500 29012KT P6SM SCT030
     FM101700 32014G21KT P6SM BKN030
     FM102300 31009KT P6SM OVC020=

USA.gov is the U.S. government's official web portal to all federal, state and local government web resources and services.